Time,TemperatureF,DewpointF,PressureIn,WindDirection,WindDirectionDegrees,WindSpeedMPH,WindSpeedGustMPH,Humidity,HourlyPrecipIn,Conditions,Clouds,dailyrainin,SolarRadiationWatts/m^2,SoftwareType,DateUTC
2013-01-03 08:25:00,7.8,5.0,30.16,WSW,244,0.0,5.0,89,0.00,,,0.00,47,weatherlink.com 1.10,2013-01-03 13:25:00,
2013-01-03 08:38:00,9.0,6.0,30.17,WSW,245,0.0,0.0,89,0.00,,,0.00,58,weatherlink.com 1.10,2013-01-03 13:38:00,
2013-01-03 08:53:00,9.6,6.0,30.16,WSW,244,0.0,3.0,85,0.00,,,0.00,46,weatherlink.com 1.10,2013-01-03 13:53:00,
2013-01-03 09:08:00,9.6,6.0,30.16,South,180,2.0,3.0,86,0.00,,,0.00,190,weatherlink.com 1.10,2013-01-03 14:08:00,
2013-01-03 09:23:00,11.6,8.0,30.16,WSW,242,0.0,5.0,86,0.00,,,0.00,120,weatherlink.com 1.10,2013-01-03 14:23:00,
2013-01-03 09:38:00,12.1,8.0,30.16,WSW,240,0.0,0.0,83,0.00,,,0.00,137,weatherlink.com 1.10,2013-01-03 14:38:00,
2013-01-03 09:53:00,12.3,8.0,30.16,South,175,2.0,3.0,81,0.00,,,0.00,162,weatherlink.com 1.10,2013-01-03 14:53:00,
2013-01-03 10:08:00,12.9,8.0,30.16,South,175,0.0,3.0,81,0.00,,,0.00,160,weatherlink.com 1.10,2013-01-03 15:08:00,
2013-01-03 10:23:00,13.2,8.0,30.15,South,175,0.0,2.0,81,0.00,,,0.00,186,weatherlink.com 1.10,2013-01-03 15:23:00,
2013-01-03 10:38:00,14.3,10.0,30.15,South,175,0.0,2.0,82,0.00,,,0.00,197,weatherlink.com 1.10,2013-01-03 15:38:00,
2013-01-03 10:53:00,15.3,10.0,30.14,South,171,2.0,3.0,80,0.00,,,0.00,218,weatherlink.com 1.10,2013-01-03 15:53:00,
2013-01-03 11:09:00,15.6,11.0,30.14,South,170,0.0,0.0,81,0.00,,,0.00,229,weatherlink.com 1.10,2013-01-03 16:09:00,
2013-01-03 11:24:00,16.4,11.0,30.13,South,170,1.0,2.0,80,0.00,,,0.00,279,weatherlink.com 1.10,2013-01-03 16:24:00,
2013-01-03 11:39:00,17.7,13.0,30.12,South,170,0.0,2.0,80,0.00,,,0.00,338,weatherlink.com 1.10,2013-01-03 16:39:00,
2013-01-03 11:54:00,18.2,12.0,30.11,South,170,0.0,2.0,76,0.00,,,0.00,301,weatherlink.com 1.10,2013-01-03 16:54:00,
2013-01-03 12:09:00,18.3,12.0,30.10,South,169,1.0,2.0,77,0.00,,,0.00,322,weatherlink.com 1.10,2013-01-03 17:09:00,
2013-01-03 12:24:00,19.2,13.0,30.09,South,169,0.0,1.0,77,0.00,,,0.00,276,weatherlink.com 1.10,2013-01-03 17:24:00,
2013-01-03 12:39:00,19.2,13.0,30.08,South,169,2.0,3.0,75,0.00,,,0.00,443,weatherlink.com 1.10,2013-01-03 17:39:00,
2013-01-03 12:54:00,19.0,13.0,30.07,South,169,0.0,0.0,78,0.00,,,0.00,264,weatherlink.com 1.10,2013-01-03 17:54:00,
2013-01-03 13:09:00,20.2,14.0,30.07,South,169,0.0,0.0,77,0.00,,,0.00,183,weatherlink.com 1.10,2013-01-03 18:09:00,
2013-01-03 13:24:00,19.6,13.0,30.06,South,169,0.0,2.0,76,0.00,,,0.00,223,weatherlink.com 1.10,2013-01-03 18:24:00,
2013-01-03 13:39:00,18.1,12.0,30.05,South,169,0.0,2.0,76,0.00,,,0.00,155,weatherlink.com 1.10,2013-01-03 18:39:00,
2013-01-03 13:54:00,18.1,13.0,30.04,South,169,0.0,0.0,80,0.00,,,0.00,169,weatherlink.com 1.10,2013-01-03 18:54:00,
2013-01-03 14:09:00,18.6,13.0,30.04,South,169,0.0,0.0,80,0.00,,,0.00,163,weatherlink.com 1.10,2013-01-03 19:09:00,
2013-01-03 15:10:00,17.8,14.0,30.03,South,169,1.0,3.0,85,0.00,,,0.00,60,weatherlink.com 1.10,2013-01-03 20:10:00,
2013-01-03 15:25:00,18.4,15.0,30.03,South,178,2.0,4.0,87,0.00,,,0.00,76,weatherlink.com 1.10,2013-01-03 20:25:00,
2013-01-03 15:40:00,20.4,18.0,30.03,SW,220,1.0,3.0,90,0.00,,,0.00,60,weatherlink.com 1.10,2013-01-03 20:40:00,
2013-01-03 15:55:00,22.2,20.0,30.04,South,188,0.0,6.0,91,0.00,,,0.00,12,weatherlink.com 1.10,2013-01-03 20:55:00,
2013-01-03 16:10:00,23.1,21.0,30.03,SW,232,5.0,7.0,91,0.00,,,0.00,11,weatherlink.com 1.10,2013-01-03 21:10:00,
2013-01-03 16:25:00,23.5,21.0,30.03,South,174,0.0,6.0,90,0.00,,,0.00,0,weatherlink.com 1.10,2013-01-03 21:25:00,
2013-01-03 16:40:00,23.4,21.0,30.02,SSW,198,2.0,8.0,90,0.00,,,0.00,0,weatherlink.com 1.10,2013-01-03 21:40:00,
2013-01-03 16:55:00,23.4,21.0,30.02,SW,214,3.0,6.0,90,0.00,,,0.00,0,weatherlink.com 1.10,2013-01-03 21:55:00,
2013-01-03 17:10:00,23.5,21.0,30.02,SSW,203,3.0,6.0,90,0.00,,,0.00,0,weatherlink.com 1.10,2013-01-03 22:10:00,
2013-01-03 17:25:00,23.5,21.0,30.02,SSW,203,0.0,7.0,90,0.00,,,0.00,0,weatherlink.com 1.10,2013-01-03 22:25:00,
2013-01-03 17:40:00,23.6,21.0,30.02,SSW,207,0.0,8.0,89,0.00,,,0.00,0,weatherlink.com 1.10,2013-01-03 22:40:00,
2013-01-03 17:56:00,23.6,21.0,30.02,SSW,198,0.0,6.0,89,0.00,,,0.00,0,weatherlink.com 1.10,2013-01-03 22:56:00,
2013-01-03 18:11:00,23.5,21.0,30.02,SSW,209,3.0,7.0,89,0.00,,,0.00,0,weatherlink.com 1.10,2013-01-03 23:11:00,
2013-01-03 18:26:00,23.4,21.0,30.02,SSW,202,1.0,7.0,90,0.00,,,0.00,0,weatherlink.com 1.10,2013-01-03 23:26:00,
2013-01-03 18:41:00,23.3,21.0,30.02,SSW,197,3.0,7.0,90,0.00,,,0.00,0,weatherlink.com 1.10,2013-01-03 23:41:00,
2013-01-03 18:56:00,23.3,21.0,30.02,SSW,196,1.0,8.0,90,0.00,,,0.00,0,weatherlink.com 1.10,2013-01-03 23:56:00,
2013-01-03 19:11:00,23.3,21.0,30.01,SW,221,5.0,8.0,90,0.00,,,0.00,0,weatherlink.com 1.10,2013-01-04 00:11:00,
2013-01-03 19:26:00,23.3,21.0,30.01,SSW,192,3.0,11.0,90,0.00,,,0.00,0,weatherlink.com 1.10,2013-01-04 00:26:00,
2013-01-03 19:41:00,23.3,21.0,30.01,SW,222,1.0,6.0,90,0.00,,,0.00,0,weatherlink.com 1.10,2013-01-04 00:41:00,
2013-01-03 19:56:00,23.4,21.0,30.01,SSW,195,4.0,8.0,90,0.00,,,0.00,0,weatherlink.com 1.10,2013-01-04 00:56:00,
2013-01-03 20:11:00,23.7,21.0,30.00,WSW,237,3.0,8.0,90,0.00,,,0.00,0,weatherlink.com 1.10,2013-01-04 01:11:00,
2013-01-03 20:26:00,24.2,22.0,30.00,SW,221,8.0,8.0,89,0.00,,,0.00,0,weatherlink.com 1.10,2013-01-04 01:26:00,
2013-01-03 20:56:00,24.9,22.0,30.00,SW,222,4.0,8.0,90,0.00,,,0.00,0,weatherlink.com 1.10,2013-01-04 01:56:00,
2013-01-03 21:12:00,24.9,22.0,30.00,SW,221,0.0,7.0,90,0.00,,,0.00,0,weatherlink.com 1.10,2013-01-04 02:12:00,
2013-01-03 21:27:00,25.2,23.0,29.99,SW,234,5.0,11.0,90,0.00,,,0.00,0,weatherlink.com 1.10,2013-01-04 02:27:00,
2013-01-03 21:42:00,26.0,24.0,29.99,WSW,240,11.0,15.0,90,0.00,,,0.00,0,weatherlink.com 1.10,2013-01-04 02:42:00,
2013-01-03 21:57:00,26.5,24.0,30.00,WSW,247,13.0,17.0,89,0.00,,,0.00,0,weatherlink.com 1.10,2013-01-04 02:57:00,
2013-01-03 22:12:00,26.8,24.0,30.00,WSW,252,13.0,17.0,89,0.00,,,0.00,0,weatherlink.com 1.10,2013-01-04 03:12:00,
2013-01-03 22:27:00,27.0,24.0,29.99,WSW,240,11.0,22.0,88,0.00,,,0.00,0,weatherlink.com 1.10,2013-01-04 03:27:00,
2013-01-03 22:42:00,27.1,24.0,29.99,WSW,254,13.0,18.0,88,0.00,,,0.00,0,weatherlink.com 1.10,2013-01-04 03:42:00,
2013-01-03 22:57:00,27.3,24.0,29.99,West,261,19.0,21.0,87,0.00,,,0.00,0,weatherlink.com 1.10,2013-01-04 03:57:00,
2013-01-03 23:12:00,27.4,24.0,29.99,WSW,247,11.0,21.0,86,0.00,,,0.00,0,weatherlink.com 1.10,2013-01-04 04:12:00,
2013-01-03 23:27:00,27.5,24.0,29.98,West,264,18.0,27.0,86,0.00,,,0.00,0,weatherlink.com 1.10,2013-01-04 04:27:00,
2013-01-03 23:42:00,27.5,24.0,29.97,WSW,240,16.0,23.0,87,0.00,,,0.00,0,weatherlink.com 1.10,2013-01-04 04:42:00,
2013-01-03 23:57:00,27.5,24.0,29.97,West,260,20.0,22.0,86,0.00,,,0.00,0,weatherlink.com 1.10,2013-01-04 04:57:00,